Time;durP1;ratioP1;P1;durP2;ratioP2;P2;SDS_P1;SDS_P2;PMS_P1;PMS_P2;Temp;Humidity;BMP_temperature;BMP_pressure;BME280_temperature;BME280_humidity;BME280_pressure;Samples;Min_cycle;Max_cycle;Signal;HPM_P1;HPM_P2
2023/09/08 00:01:02;;;;;;;5.07;3.40;;;;;;;-142.57;58.90;115900.28;5075885;28;20024;-79
2023/09/08 00:03:27;;;;;;;8.80;3.80;;;;;;;-142.57;58.64;115900.28;5076616;28;20468;-81
2023/09/08 00:05:53;;;;;;;6.30;3.22;;;;;;;-142.57;58.43;115900.28;5074462;28;20083;-80
2023/09/08 00:08:18;;;;;;;8.77;3.53;;;;;;;-142.57;57.99;115900.28;5053968;28;20387;-79
2023/09/08 00:10:44;;;;;;;4.85;3.10;;;;;;;-142.57;58.11;115900.28;5075172;28;20061;-79
2023/09/08 00:13:09;;;;;;;8.48;3.42;;;;;;;-142.57;57.76;115900.28;5076371;28;20475;-83
2023/09/08 00:15:35;;;;;;;5.07;3.50;;;;;;;-142.57;57.63;115900.28;5075084;28;20033;-79
2023/09/08 00:18:01;;;;;;;11.50;4.10;;;;;;;-142.57;58.36;115900.28;5074694;28;20452;-80
2023/09/08 00:20:26;;;;;;;4.18;3.28;;;;;;;-142.57;58.57;115900.28;5074906;28;20035;-79
2023/09/08 00:22:52;;;;;;;8.98;3.67;;;;;;;-142.57;58.41;115900.28;5075375;28;20032;-82
2023/09/08 00:25:18;;;;;;;6.38;3.35;;;;;;;-142.57;59.11;115900.28;5074580;28;20113;-79
2023/09/08 00:27:43;;;;;;;9.98;4.10;;;;;;;-142.57;58.57;115900.28;5075887;28;20032;-78
2023/09/08 00:30:09;;;;;;;7.55;3.78;;;;;;;-142.57;58.37;115900.28;5057600;28;20045;-77
2023/09/08 00:32:35;;;;;;;9.40;4.03;;;;;;;-142.57;57.25;115900.28;5075166;28;20078;-78
2023/09/08 00:35:01;;;;;;;8.68;4.10;;;;;;;-142.57;58.15;115900.28;5075781;28;20090;-77
2023/09/08 00:37:26;;;;;;;7.40;4.30;;;;;;;-142.57;58.99;115900.28;5075526;28;20462;-77
2023/09/08 00:39:51;;;;;;;8.25;3.60;;;;;;;-142.57;59.45;115900.28;5075870;28;20041;-77
2023/09/08 00:42:17;;;;;;;6.90;3.75;;;;;;;-142.57;59.73;115900.28;5075066;28;20128;-82
2023/09/08 00:44:43;;;;;;;7.47;3.80;;;;;;;-142.57;59.42;115900.28;5075351;28;20474;-81
2023/09/08 00:47:08;;;;;;;5.13;3.58;;;;;;;-142.57;60.21;115900.28;5075756;28;20078;-81
2023/09/08 00:49:34;;;;;;;9.15;3.58;;;;;;;-142.57;59.96;115900.28;5057734;28;20044;-80
2023/09/08 00:52:00;;;;;;;7.43;3.78;;;;;;;-142.57;60.10;115900.28;5074752;28;20090;-79
2023/09/08 00:54:28;;;;;;;5.90;3.75;;;;;;;-142.57;60.27;115900.28;5076215;28;20040;-80
2023/09/08 00:56:56;;;;;;;8.75;3.85;;;;;;;-142.57;59.11;115900.28;5076100;28;20073;-80
2023/09/08 00:59:22;;;;;;;5.20;3.47;;;;;;;-142.57;60.13;115900.28;5058085;28;20040;-80
2023/09/08 01:01:47;;;;;;;5.93;3.63;;;;;;;-142.57;59.99;115900.28;5076607;28;20410;-81
2023/09/08 01:04:13;;;;;;;8.10;4.00;;;;;;;-142.57;59.81;115900.28;5056651;28;20027;-83
2023/09/08 01:06:39;;;;;;;13.63;3.75;;;;;;;-142.57;60.76;115900.28;5075091;28;20040;-79
2023/09/08 01:09:05;;;;;;;10.85;3.75;;;;;;;-142.57;62.04;115900.28;5074788;28;20104;-80
2023/09/08 01:11:32;;;;;;;10.48;4.22;;;;;;;-142.57;62.83;115900.28;5074056;28;20471;-79
2023/09/08 01:13:57;;;;;;;6.88;3.92;;;;;;;-142.57;62.72;115900.28;5073636;28;20028;-79
2023/09/08 01:16:23;;;;;;;5.72;3.92;;;;;;;-142.57;62.93;115900.28;5073935;28;20025;-79
2023/09/08 01:18:49;;;;;;;8.48;4.57;;;;;;;-142.57;64.12;115900.28;5073437;28;20024;-79
2023/09/08 01:21:52;;;;;;;10.45;4.25;;;;;;;-142.57;65.13;115900.28;5073724;28;20052;-77
2023/09/08 01:24:51;;;;;;;12.93;4.47;;;;;;;-142.57;65.51;115900.28;5073795;28;20459;-80
2023/09/08 01:27:19;;;;;;;12.98;4.32;;;;;;;-142.57;65.35;115900.28;5073617;28;20097;-75
2023/09/08 01:29:49;;;;;;;12.55;4.38;;;;;;;-142.57;64.98;115900.28;5056410;28;20028;-76
2023/09/08 01:32:16;;;;;;;8.35;4.05;;;;;;;-142.57;64.66;115900.28;5074357;28;20041;-78
2023/09/08 01:34:41;;;;;;;10.30;4.05;;;;;;;-142.57;64.46;115900.28;5073978;28;20030;-78
2023/09/08 01:37:07;;;;;;;10.65;4.13;;;;;;;-142.57;64.18;115900.28;5073826;28;20131;-77
2023/09/08 01:39:32;;;;;;;9.68;3.97;;;;;;;-142.57;64.46;115900.28;5073746;28;20376;-79
2023/09/08 01:41:58;;;;;;;6.93;4.53;;;;;;;-142.57;64.74;115900.28;5054415;28;20085;-78
2023/09/08 01:44:24;;;;;;;10.95;4.28;;;;;;;-142.57;64.77;115900.28;5073214;28;20063;-78
2023/09/08 01:46:51;;;;;;;8.90;3.92;;;;;;;-142.57;64.19;115900.28;5073817;28;20031;-78
2023/09/08 01:49:16;;;;;;;8.80;4.40;;;;;;;-142.57;65.31;115900.28;5073692;28;20032;-77
2023/09/08 01:51:42;;;;;;;6.75;3.75;;;;;;;-142.57;66.39;115900.28;5073934;28;20033;-79
2023/09/08 01:54:07;;;;;;;7.72;4.13;;;;;;;-142.57;65.53;115900.28;5073738;28;20477;-79
2023/09/08 01:56:33;;;;;;;7.82;3.70;;;;;;;-142.57;64.72;115900.28;5073552;28;20132;-77
2023/09/08 01:58:59;;;;;;;5.70;3.72;;;;;;;-142.57;63.42;115900.28;5073727;28;20031;-77
2023/09/08 02:01:25;;;;;;;6.60;4.32;;;;;;;-142.57;61.81;115900.28;5088793;28;20036;-78
2023/09/08 02:03:50;;;;;;;6.82;3.85;;;;;;;-142.57;62.96;115900.28;5073848;28;20036;-79
2023/09/08 02:06:16;;;;;;;7.05;4.68;;;;;;;-142.57;63.45;115900.28;5076361;28;20479;-77
2023/09/08 02:08:42;;;;;;;6.50;4.25;;;;;;;-142.57;64.53;115900.28;5039242;28;20044;-78
2023/09/08 02:11:08;;;;;;;7.35;3.88;;;;;;;-142.57;63.95;115900.28;5072915;28;20028;-80
2023/09/08 02:13:33;;;;;;;4.72;3.75;;;;;;;-142.57;65.15;115900.28;5072839;28;20556;-79
2023/09/08 02:15:59;;;;;;;7.38;4.18;;;;;;;-142.57;65.15;115900.28;5054716;28;20067;-78
2023/09/08 02:18:25;;;;;;;7.97;4.03;;;;;;;-142.57;65.83;115900.28;5054708;28;20036;-76
2023/09/08 02:20:52;;;;;;;11.60;4.25;;;;;;;-142.57;65.33;115900.28;5072975;28;20032;-78
2023/09/08 02:23:17;;;;;;;6.68;4.03;;;;;;;-142.57;64.50;115900.28;5072711;28;20027;-78
2023/09/08 02:25:43;;;;;;;6.60;4.45;;;;;;;-142.57;65.50;115900.28;5072009;28;20440;-78
2023/09/08 02:28:08;;;;;;;6.38;3.90;;;;;;;-142.57;66.09;115900.28;5072763;28;20035;-77
2023/09/08 02:30:34;;;;;;;5.38;3.75;;;;;;;-142.57;66.46;115900.28;5055118;28;20473;-77
2023/09/08 02:33:00;;;;;;;7.70;3.90;;;;;;;-142.57;66.90;115900.28;5076308;28;20047;-77
2023/09/08 02:35:25;;;;;;;8.60;4.50;;;;;;;-142.57;67.31;115900.28;5076877;28;20055;-77
2023/09/08 02:37:52;;;;;;;6.28;3.70;;;;;;;-142.57;66.88;115900.28;5059332;28;20040;-79
2023/09/08 02:40:20;;;;;;;5.78;3.60;;;;;;;-142.57;66.85;115900.28;5058691;28;20032;-77
2023/09/08 02:42:46;;;;;;;7.68;3.95;;;;;;;-142.57;66.52;115900.28;5076413;28;20040;-77
2023/09/08 02:45:11;;;;;;;6.75;4.28;;;;;;;-142.57;66.00;115900.28;5076317;28;20035;-78
2023/09/08 02:47:37;;;;;;;9.65;4.47;;;;;;;-142.57;65.54;115900.28;5058893;28;20091;-80
2023/09/08 02:50:04;;;;;;;8.13;3.67;;;;;;;-142.57;65.06;115900.28;5058942;28;20036;-78
2023/09/08 02:52:32;;;;;;;5.57;3.78;;;;;;;-142.57;65.77;115900.28;5058728;28;20452;-79
2023/09/08 02:54:57;;;;;;;5.88;4.25;;;;;;;-142.57;65.86;115900.28;5076784;28;20071;-77
2023/09/08 02:57:24;;;;;;;5.15;3.45;;;;;;;-142.57;65.81;115900.28;5077004;28;20028;-79
2023/09/08 02:59:51;;;;;;;8.95;4.20;;;;;;;-142.57;65.22;115900.28;5058455;28;20037;-78
2023/09/08 03:02:16;;;;;;;8.05;3.83;;;;;;;-142.57;64.49;115900.28;5057301;28;20037;-78
2023/09/08 03:04:42;;;;;;;9.85;4.63;;;;;;;-142.57;65.63;115900.28;5058566;28;20025;-79
2023/09/08 03:07:10;;;;;;;7.28;4.03;;;;;;;-142.57;64.85;115900.28;5057169;28;20082;-79
2023/09/08 03:09:36;;;;;;;7.82;4.05;;;;;;;-142.57;64.93;115900.28;5057715;28;20032;-77
2023/09/08 03:12:01;;;;;;;14.55;4.05;;;;;;;-142.57;63.58;115900.28;5058218;28;20068;-79
2023/09/08 03:14:27;;;;;;;6.75;3.95;;;;;;;-142.57;63.59;115900.28;5075884;28;20040;-77
2023/09/08 03:16:54;;;;;;;10.50;4.47;;;;;;;-142.57;64.04;115900.28;5075756;28;20036;-79
2023/09/08 03:19:20;;;;;;;12.18;4.10;;;;;;;-142.57;64.11;115900.28;5075982;28;20031;-77
2023/09/08 03:21:45;;;;;;;6.10;4.15;;;;;;;-142.57;64.93;115900.28;5076122;28;20021;-78
2023/09/08 03:24:11;;;;;;;9.18;4.30;;;;;;;-142.57;65.41;115900.28;5075899;28;20064;-78
2023/09/08 03:26:36;;;;;;;11.05;5.15;;;;;;;-142.57;65.62;115900.28;5076186;28;20028;-77
2023/09/08 03:29:03;;;;;;;7.97;4.10;;;;;;;-142.57;66.18;115900.28;5076179;28;20028;-77
2023/09/08 03:31:30;;;;;;;6.45;3.85;;;;;;;-142.57;67.36;115900.28;5076671;28;20037;-78
2023/09/08 03:33:56;;;;;;;9.98;4.78;;;;;;;-142.57;68.49;115900.28;5058368;28;20033;-77
2023/09/08 03:36:21;;;;;;;6.55;3.70;;;;;;;-142.57;67.56;115900.28;5076053;28;20032;-77
2023/09/08 03:38:47;;;;;;;7.03;4.40;;;;;;;-142.57;67.56;115900.28;5076307;28;20376;-77
2023/09/08 03:41:13;;;;;;;5.78;4.15;;;;;;;-142.57;67.89;115900.28;5057810;28;20072;-77
2023/09/08 03:43:39;;;;;;;8.30;4.07;;;;;;;-142.57;66.81;115900.28;5057629;28;20048;-82
2023/09/08 03:46:04;;;;;;;6.28;4.18;;;;;;;-142.57;66.61;115900.28;5075753;28;20525;-78
2023/09/08 03:48:30;;;;;;;7.82;4.28;;;;;;;-142.57;66.69;115900.28;5091191;28;20040;-76
2023/09/08 03:50:55;;;;;;;17.70;4.63;;;;;;;-142.57;65.83;115900.28;5057804;28;20394;-81
2023/09/08 03:53:21;;;;;;;13.38;5.25;;;;;;;-142.57;67.64;115900.28;5091677;28;20044;-78
2023/09/08 03:55:46;;;;;;;10.10;4.15;;;;;;;-142.57;67.18;115900.28;5075826;28;20048;-77
2023/09/08 03:58:13;;;;;;;14.43;4.28;;;;;;;-142.57;67.12;115900.28;5057582;28;20075;-80
2023/09/08 04:00:39;;;;;;;6.15;4.30;;;;;;;-142.57;66.21;115900.28;5075515;28;20056;-78
2023/09/08 04:03:04;;;;;;;6.07;4.20;;;;;;;-142.57;66.37;115900.28;5091094;28;20117;-77
2023/09/08 04:05:30;;;;;;;11.23;5.18;;;;;;;-142.57;65.71;115900.28;5075173;28;20056;-78
2023/09/08 04:07:55;;;;;;;6.78;4.57;;;;;;;-142.57;65.54;115900.28;5075663;28;20025;-82
2023/09/08 04:10:21;;;;;;;15.35;4.55;;;;;;;-142.57;67.20;115900.28;5076937;28;20092;-80
2023/09/08 04:12:47;;;;;;;8.00;4.40;;;;;;;-142.57;67.05;115900.28;5076819;28;20510;-81
2023/09/08 04:15:12;;;;;;;7.78;5.15;;;;;;;-142.57;66.37;115900.28;5077712;28;20021;-79
2023/09/08 04:17:38;;;;;;;9.38;4.70;;;;;;;-142.57;66.97;115900.28;5057711;28;20021;-77
2023/09/08 04:20:05;;;;;;;12.57;5.32;;;;;;;-142.57;68.00;115900.28;5057545;28;20040;-79
2023/09/08 04:22:31;;;;;;;9.85;5.10;;;;;;;-142.57;69.36;115900.28;5057683;28;20074;-79
2023/09/08 04:24:57;;;;;;;7.07;4.75;;;;;;;-142.57;68.99;115900.28;5056691;28;20048;-79
2023/09/08 04:27:23;;;;;;;8.35;4.43;;;;;;;-142.57;67.70;115900.28;5057165;28;20080;-82
2023/09/08 04:29:49;;;;;;;6.97;4.45;;;;;;;-142.57;68.92;115900.28;5057203;28;20019;-77
2023/09/08 04:32:14;;;;;;;8.77;4.97;;;;;;;-142.57;70.09;115900.28;5057452;28;20128;-82
2023/09/08 04:34:41;;;;;;;9.55;4.72;;;;;;;-142.57;71.40;115900.28;5091027;28;20059;-80
2023/09/08 04:37:07;;;;;;;6.13;5.07;;;;;;;-142.57;72.31;115900.28;5074423;28;20039;-78
2023/09/08 04:39:34;;;;;;;8.20;5.00;;;;;;;-142.57;71.05;115900.28;5075406;28;20037;-81
2023/09/08 04:41:59;;;;;;;12.95;5.25;;;;;;;-142.57;71.42;115900.28;5074772;28;20079;-79
2023/09/08 04:44:25;;;;;;;7.30;4.22;;;;;;;-142.57;73.33;115900.28;5056581;28;20040;-79
2023/09/08 04:46:52;;;;;;;11.85;5.03;;;;;;;-142.57;73.82;115900.28;5056523;28;20432;-79
2023/09/08 04:49:18;;;;;;;17.02;4.97;;;;;;;-142.57;75.46;115900.28;5056690;28;20487;-80
2023/09/08 04:51:44;;;;;;;8.35;4.97;;;;;;;-142.57;75.56;115900.28;5074292;28;20037;-77
2023/09/08 04:54:10;;;;;;;21.05;5.70;;;;;;;-142.57;75.45;115900.28;5039307;28;20028;-80
2023/09/08 04:56:39;;;;;;;9.15;5.68;;;;;;;-142.57;74.20;115900.28;5056116;28;20032;-78
2023/09/08 04:59:05;;;;;;;14.48;4.95;;;;;;;-142.57;72.67;115900.28;5040035;28;20136;-81
2023/09/08 05:01:32;;;;;;;13.10;5.20;;;;;;;-142.57;72.97;115900.28;5055123;28;20028;-79
2023/09/08 05:04:02;;;;;;;9.73;5.30;;;;;;;-142.57;72.91;115900.28;5041343;28;20402;-79
2023/09/08 05:06:27;;;;;;;13.77;5.63;;;;;;;-142.57;73.06;115900.28;5055415;28;20036;-78
2023/09/08 05:08:53;;;;;;;8.00;4.68;;;;;;;-142.57;72.28;115900.28;5073981;28;20035;-79
2023/09/08 05:11:19;;;;;;;13.23;4.55;;;;;;;-142.57;72.63;115900.28;5056315;28;20143;-78
2023/09/08 05:13:48;;;;;;;17.48;5.43;;;;;;;-142.57;71.05;115900.28;5074160;28;20527;-78
2023/09/08 05:16:14;;;;;;;18.33;5.38;;;;;;;-142.57;68.83;115900.28;5055583;28;20068;-79
2023/09/08 05:18:45;;;;;;;14.07;4.88;;;;;;;-142.57;70.44;115900.28;5055757;28;20127;-79
2023/09/08 05:21:10;;;;;;;16.20;5.40;;;;;;;-142.57;67.62;115900.28;5055861;28;20471;-78
2023/09/08 05:23:36;;;;;;;14.73;5.53;;;;;;;-142.57;68.11;115900.28;5055828;28;20566;-79
2023/09/08 05:26:02;;;;;;;18.25;5.68;;;;;;;-142.57;65.73;115900.28;5055726;28;20148;-76
2023/09/08 05:28:27;;;;;;;19.73;5.25;;;;;;;-142.57;63.64;115900.28;5054900;28;20178;-79
2023/09/08 05:30:54;;;;;;;20.85;5.32;;;;;;;-142.57;62.43;115900.28;5055257;28;20390;-80
2023/09/08 05:33:22;;;;;;;13.15;5.25;;;;;;;-142.57;62.00;115900.28;5055407;28;20043;-81
2023/09/08 05:35:48;;;;;;;19.75;4.65;;;;;;;-142.57;57.23;115900.28;5055218;28;20024;-80
2023/09/08 05:38:14;;;;;;;27.27;5.90;;;;;;;-142.57;54.17;115900.28;5055131;28;20036;-82
2023/09/08 05:40:40;;;;;;;20.75;5.50;;;;;;;-142.57;53.39;115900.28;5067730;28;20032;-79
2023/09/08 05:43:06;;;;;;;17.95;5.32;;;;;;;-142.57;53.95;115900.28;5046525;28;20024;-81
2023/09/08 05:45:32;;;;;;;20.38;4.97;;;;;;;-142.57;53.36;115900.28;5046978;28;20037;-80
2023/09/08 05:47:58;;;;;;;16.00;5.47;;;;;;;-142.57;52.69;115900.28;5051096;28;20039;-80
2023/09/08 05:50:28;;;;;;;12.70;5.00;;;;;;;-142.57;54.22;115900.28;5078168;28;20055;-79
2023/09/08 05:52:54;;;;;;;11.65;4.93;;;;;;;-142.57;50.84;115900.28;5052629;28;20479;-79
2023/09/08 05:55:20;;;;;;;12.82;5.28;;;;;;;-142.57;49.11;115900.28;5054743;28;20155;-77
2023/09/08 05:57:47;;;;;;;16.02;5.65;;;;;;;-142.57;47.80;115900.28;5083265;28;20028;-80
2023/09/08 06:00:13;;;;;;;17.27;5.00;;;;;;;-142.57;51.01;115900.28;5052034;28;20044;-81
2023/09/08 06:02:38;;;;;;;13.38;5.10;;;;;;;-142.57;48.85;115900.28;5053644;28;20048;-82
2023/09/08 06:05:06;;;;;;;17.95;4.50;;;;;;;-142.57;46.64;115900.28;5051419;28;20036;-83
2023/09/08 06:07:32;;;;;;;9.40;4.78;;;;;;;-142.57;48.47;115900.28;5052468;28;20037;-79
2023/09/08 06:09:58;;;;;;;13.70;4.53;;;;;;;-142.57;47.87;115900.28;5055494;28;20050;-79
2023/09/08 06:12:24;;;;;;;10.63;4.50;;;;;;;-142.57;49.23;115900.28;5055208;28;20095;-82
2023/09/08 06:14:50;;;;;;;8.38;4.90;;;;;;;-142.57;49.97;115900.28;5073561;28;20039;-79
2023/09/08 06:17:15;;;;;;;11.55;4.47;;;;;;;-142.57;48.80;115900.28;5054427;28;20016;-78
2023/09/08 06:19:41;;;;;;;11.20;4.57;;;;;;;-142.57;49.76;115900.28;5072630;28;20068;-80
2023/09/08 06:22:06;;;;;;;12.63;4.25;;;;;;;-142.57;51.28;115900.28;5072446;28;20494;-80
2023/09/08 06:24:32;;;;;;;12.10;4.90;;;;;;;-142.57;50.81;115900.28;5072253;28;20078;-79
2023/09/08 06:26:58;;;;;;;11.23;4.70;;;;;;;-142.57;50.71;115900.28;5054836;28;20072;-78
2023/09/08 06:29:24;;;;;;;14.52;4.82;;;;;;;-142.57;50.04;115900.28;5054457;28;20055;-77
2023/09/08 06:31:49;;;;;;;7.70;4.72;;;;;;;-142.57;47.73;115900.28;5054695;28;20067;-78
2023/09/08 06:34:16;;;;;;;14.05;4.40;;;;;;;-142.57;47.70;115900.28;5072017;28;20524;-79
2023/09/08 06:36:42;;;;;;;10.30;4.65;;;;;;;-142.57;45.81;115900.28;5054330;28;20067;-78
2023/09/08 06:39:08;;;;;;;8.52;4.00;;;;;;;-142.57;44.67;115900.28;5054362;28;20043;-77
2023/09/08 06:41:33;;;;;;;12.63;4.28;;;;;;;-142.57;43.94;115900.28;5072485;28;20108;-79
2023/09/08 06:44:02;;;;;;;14.93;4.72;;;;;;;-142.57;44.48;115900.28;5052495;28;20025;-78
2023/09/08 06:46:28;;;;;;;11.63;4.65;;;;;;;-142.57;44.46;115900.28;5054209;28;20076;-79
2023/09/08 06:48:53;;;;;;;14.38;4.90;;;;;;;-142.57;43.63;115900.28;5072176;28;20504;-78
2023/09/08 06:51:19;;;;;;;20.92;5.40;;;;;;;-142.57;42.83;115900.28;5053344;28;20106;-76
2023/09/08 06:53:55;;;;;;;17.25;6.05;;;;;;;-142.57;42.75;115900.28;5054189;28;20123;-81
2023/09/08 06:56:21;;;;;;;13.82;5.10;;;;;;;-142.57;42.84;115900.28;5053773;28;20429;-78
2023/09/08 06:58:46;;;;;;;9.10;5.10;;;;;;;-142.57;42.57;115900.28;5054346;28;20040;-79
2023/09/08 07:01:12;;;;;;;11.60;4.90;;;;;;;-142.57;43.31;115900.28;5053720;28;20028;-78
2023/09/08 07:03:38;;;;;;;18.13;5.22;;;;;;;-142.57;42.56;115900.28;5053623;28;20051;-77
2023/09/08 07:06:05;;;;;;;14.48;5.80;;;;;;;-142.57;41.48;115900.28;5054212;28;20025;-77
2023/09/08 07:08:30;;;;;;;14.55;5.43;;;;;;;-142.57;40.92;115900.28;5053920;28;20044;-81
2023/09/08 07:10:56;;;;;;;7.57;5.30;;;;;;;-142.57;41.40;115900.28;5071512;28;20064;-78
2023/09/08 07:13:21;;;;;;;13.88;5.47;;;;;;;-142.57;39.15;115900.28;5071537;28;20021;-81
2023/09/08 07:15:47;;;;;;;16.42;5.20;;;;;;;-142.57;40.08;115900.28;5053272;28;20119;-79
2023/09/08 07:18:13;;;;;;;8.95;4.75;;;;;;;-142.57;40.09;115900.28;5056443;28;20071;-82
2023/09/08 07:20:39;;;;;;;16.90;5.70;;;;;;;-142.57;38.75;115900.28;5058005;28;20033;-78
2023/09/08 07:23:04;;;;;;;11.90;5.53;;;;;;;-142.57;39.33;115900.28;5074610;28;20145;-79
2023/09/08 07:25:30;;;;;;;9.10;5.10;;;;;;;-142.57;37.85;115900.28;5075840;28;20033;-80
2023/09/08 07:27:55;;;;;;;14.02;4.95;;;;;;;-142.57;36.70;115900.28;5057614;28;20024;-81
2023/09/08 07:30:22;;;;;;;8.80;5.25;;;;;;;-142.57;38.88;115900.28;5057273;28;20024;-80
2023/09/08 07:32:47;;;;;;;13.38;4.65;;;;;;;-142.57;38.30;115900.28;5052657;28;20627;-78
2023/09/08 07:35:16;;;;;;;12.95;4.65;;;;;;;-142.57;37.90;115900.28;5074585;28;20028;-79
2023/09/08 07:37:44;;;;;;;9.98;5.32;;;;;;;-142.57;38.24;115900.28;5055499;28;20032;-79
2023/09/08 07:40:11;;;;;;;10.13;4.97;;;;;;;-142.57;37.97;115900.28;5062906;28;20033;-78
2023/09/08 07:42:37;;;;;;;9.32;4.70;;;;;;;-142.57;36.59;115900.28;5084409;28;20445;-80
2023/09/08 07:45:04;;;;;;;9.48;5.18;;;;;;;-142.57;37.17;115900.28;5064554;28;20051;-81
2023/09/08 07:47:29;;;;;;;13.02;4.88;;;;;;;-142.57;36.97;115900.28;5085481;28;20051;-81
2023/09/08 07:50:25;;;;;;;15.90;4.75;;;;;;;-142.57;36.09;115900.28;5085540;28;20051;-79
2023/09/08 07:52:52;;;;;;;14.10;4.90;;;;;;;-142.57;35.63;115900.28;5082621;28;20033;-80
2023/09/08 07:55:19;;;;;;;9.10;4.32;;;;;;;-142.57;35.43;115900.28;5081319;28;20041;-81
2023/09/08 07:57:46;;;;;;;16.05;5.80;;;;;;;-142.57;34.83;115900.28;5080532;28;20050;-78
2023/09/08 08:00:12;;;;;;;12.63;4.60;;;;;;;-142.57;34.22;115900.28;5074631;28;20048;-80
2023/09/08 08:02:49;;;;;;;14.88;5.45;;;;;;;-142.57;34.25;115900.28;5074874;28;20028;-81
2023/09/08 08:05:15;;;;;;;15.02;5.57;;;;;;;-142.57;33.65;115900.28;5071825;28;20037;-79
2023/09/08 08:07:41;;;;;;;12.40;5.60;;;;;;;-142.57;33.45;115900.28;5074775;28;20111;-81
2023/09/08 08:10:08;;;;;;;10.93;5.35;;;;;;;-142.57;33.87;115900.28;5074585;28;20036;-79
2023/09/08 08:12:34;;;;;;;16.73;5.32;;;;;;;-142.57;33.54;115900.28;5074340;28;20116;-78
2023/09/08 08:15:00;;;;;;;13.02;4.55;;;;;;;-142.57;33.26;115900.28;5074360;28;20029;-82
2023/09/08 08:17:26;;;;;;;13.02;5.20;;;;;;;-142.57;33.57;115900.28;5074230;28;20082;-79
2023/09/08 08:19:52;;;;;;;12.82;4.72;;;;;;;-142.57;34.13;115900.28;5074450;28;20029;-80
2023/09/08 08:22:18;;;;;;;16.25;5.15;;;;;;;-142.57;34.16;115900.28;5074738;28;20025;-80
2023/09/08 08:24:44;;;;;;;15.88;5.15;;;;;;;-142.57;33.95;115900.28;5075083;28;20040;-80
2023/09/08 08:27:09;;;;;;;13.82;5.10;;;;;;;-142.57;33.20;115900.28;5074199;28;20032;-80
2023/09/08 08:29:35;;;;;;;10.38;5.07;;;;;;;-142.57;33.14;115900.28;5073858;28;20028;-78
2023/09/08 08:32:00;;;;;;;9.10;4.97;;;;;;;-142.57;32.74;115900.28;5074678;28;20024;-81
2023/09/08 08:34:26;;;;;;;14.65;5.80;;;;;;;-142.57;32.92;115900.28;5074163;28;20033;-81
2023/09/08 08:36:51;;;;;;;15.60;4.93;;;;;;;-142.57;32.22;115900.28;5056524;28;20024;-78
2023/09/08 08:39:17;;;;;;;15.93;5.20;;;;;;;-142.57;32.54;115900.28;5074659;28;20040;-78
2023/09/08 08:41:43;;;;;;;14.00;4.88;;;;;;;-142.57;32.37;115900.28;5074521;28;20032;-80
2023/09/08 08:44:09;;;;;;;9.88;5.20;;;;;;;-142.57;33.26;115900.28;5056626;28;20450;-80
2023/09/08 08:46:36;;;;;;;15.75;4.35;;;;;;;-142.57;31.83;115900.28;5076961;28;20119;-78
2023/09/08 08:49:06;;;;;;;7.50;4.22;;;;;;;-142.57;32.60;115900.28;5080075;28;20028;-80
2023/09/08 08:51:32;;;;;;;14.48;4.40;;;;;;;-142.57;32.26;115900.28;5079644;28;20040;-82
2023/09/08 08:54:00;;;;;;;11.38;4.28;;;;;;;-142.57;32.04;115900.28;5081416;28;20059;-79
2023/09/08 08:56:26;;;;;;;12.50;4.32;;;;;;;-142.57;33.28;115900.28;5080305;28;20044;-83
2023/09/08 08:58:52;;;;;;;12.10;4.00;;;;;;;-142.57;32.75;115900.28;5079890;28;20029;-80
2023/09/08 09:01:20;;;;;;;14.93;4.72;;;;;;;-142.57;31.48;115900.28;5078033;28;20117;-80
2023/09/08 09:03:49;;;;;;;8.48;4.13;;;;;;;-142.57;31.77;115900.28;5060680;28;20030;-82
2023/09/08 09:06:16;;;;;;;12.38;4.50;;;;;;;-142.57;31.21;115900.28;5077676;28;20039;-80
2023/09/08 09:08:45;;;;;;;11.18;4.22;;;;;;;-142.57;30.69;115900.28;5075998;28;20025;-79
2023/09/08 09:11:11;;;;;;;9.23;4.35;;;;;;;-142.57;31.33;115900.28;5066765;28;20067;-82
2023/09/08 09:13:37;;;;;;;13.02;4.45;;;;;;;-142.57;30.69;115900.28;5082780;28;20029;-81
2023/09/08 09:16:03;;;;;;;11.90;4.88;;;;;;;-142.57;30.92;115900.28;5062465;28;20033;-80
2023/09/08 09:18:30;;;;;;;13.27;5.20;;;;;;;-142.57;32.05;115900.28;5072591;28;20107;-81
2023/09/08 09:21:01;;;;;;;8.07;4.35;;;;;;;-142.57;30.69;115900.28;5064529;28;20036;-81
2023/09/08 09:23:31;;;;;;;8.90;4.72;;;;;;;-142.57;30.79;115900.28;5067100;28;20545;-81
2023/09/08 09:25:57;;;;;;;10.57;4.55;;;;;;;-142.57;29.77;115900.28;5041688;28;20510;-85
2023/09/08 09:28:23;;;;;;;11.90;4.10;;;;;;;-142.57;29.82;115900.28;5073915;28;20059;-83
2023/09/08 09:30:56;;;;;;;13.88;4.70;;;;;;;-142.57;29.84;115900.28;5069805;28;20399;-83
2023/09/08 09:33:23;;;;;;;14.07;4.43;;;;;;;-142.57;29.11;115900.28;5073669;28;20106;-82
2023/09/08 09:35:51;;;;;;;13.55;4.10;;;;;;;-142.57;29.68;115900.28;5075100;28;20097;-85
2023/09/08 09:38:18;;;;;;;13.70;4.07;;;;;;;-142.57;29.17;115900.28;5070976;28;20493;-82
2023/09/08 09:40:47;;;;;;;7.53;4.00;;;;;;;-142.57;29.34;115900.28;5049047;28;20033;-82
2023/09/08 09:43:17;;;;;;;8.52;4.05;;;;;;;-142.57;29.68;115900.28;5065454;28;20029;-83
2023/09/08 09:45:43;;;;;;;11.40;3.90;;;;;;;-142.57;29.91;115900.28;5065617;28;20116;-85
2023/09/08 09:48:10;;;;;;;12.70;4.30;;;;;;;-142.57;28.95;115900.28;5065163;28;20090;-83
2023/09/08 09:50:40;;;;;;;5.82;3.78;;;;;;;-142.57;28.86;115900.28;5065272;28;20044;-79
2023/09/08 09:53:11;;;;;;;6.35;3.90;;;;;;;-142.57;29.64;115900.28;5071152;28;20059;-85
2023/09/08 09:55:41;;;;;;;8.52;3.88;;;;;;;-142.57;29.46;115900.28;5059240;28;20037;-80
2023/09/08 09:58:07;;;;;;;11.45;4.05;;;;;;;-142.57;29.41;115900.28;5070570;28;20395;-81
2023/09/08 10:00:34;;;;;;;13.25;4.15;;;;;;;-142.57;29.20;115900.28;5072146;28;20040;-80
2023/09/08 10:03:01;;;;;;;12.70;3.97;;;;;;;-142.57;29.07;115900.28;5069892;28;20036;-78
2023/09/08 10:05:27;;;;;;;6.43;3.67;;;;;;;-142.57;28.49;115900.28;5072734;28;20074;-78
2023/09/08 10:07:53;;;;;;;9.60;3.97;;;;;;;-142.57;28.83;115900.28;5072129;28;20505;-80
2023/09/08 10:10:20;;;;;;;8.00;3.97;;;;;;;-142.57;28.78;115900.28;5072690;28;20120;-78
2023/09/08 10:12:52;;;;;;;8.77;3.25;;;;;;;-142.57;28.19;115900.28;5072429;28;20474;-80
2023/09/08 10:15:21;;;;;;;16.33;3.97;;;;;;;-142.57;28.42;115900.28;5072008;28;20112;-77
2023/09/08 10:17:56;;;;;;;11.63;4.85;;;;;;;-142.57;29.10;115900.28;5071758;28;20032;-80
2023/09/08 10:20:23;;;;;;;16.55;3.58;;;;;;;-142.57;28.79;115900.28;5085757;28;20108;-81
2023/09/08 10:22:56;;;;;;;8.65;4.13;;;;;;;-142.57;29.25;115900.28;5073167;28;20128;-80
2023/09/08 10:25:24;;;;;;;8.13;4.00;;;;;;;-142.57;28.51;115900.28;5070638;28;20037;-81
2023/09/08 10:27:50;;;;;;;13.73;3.53;;;;;;;-142.57;28.99;115900.28;5078782;28;20028;-81
2023/09/08 10:30:17;;;;;;;12.98;3.83;;;;;;;-142.57;28.73;115900.28;5073023;28;20037;-80
2023/09/08 10:32:43;;;;;;;8.70;3.88;;;;;;;-142.57;27.81;115900.28;5054453;28;20051;-79
2023/09/08 10:35:09;;;;;;;7.32;4.10;;;;;;;-142.57;27.71;115900.28;5074872;28;20390;-81
2023/09/08 10:37:35;;;;;;;10.25;3.80;;;;;;;-142.57;27.98;115900.28;5089724;28;20391;-78
2023/09/08 10:40:19;;;;;;;10.13;3.97;;;;;;;-142.57;28.47;115900.28;5072064;28;20033;-81
2023/09/08 10:42:45;;;;;;;12.98;3.78;;;;;;;-142.57;27.94;115900.28;5072228;28;20051;-80
2023/09/08 10:45:18;;;;;;;7.55;3.70;;;;;;;-142.57;29.28;115900.28;5071450;28;20087;-80
2023/09/08 10:47:47;;;;;;;9.13;4.25;;;;;;;-142.57;27.91;115900.28;5053826;28;20025;-82
2023/09/08 10:50:25;;;;;;;7.45;3.80;;;;;;;-142.57;27.68;115900.28;5053413;28;20032;-81
2023/09/08 10:53:17;;;;;;;10.75;4.18;;;;;;;-142.57;27.01;115900.28;5075283;28;20062;-83
2023/09/08 10:55:47;;;;;;;11.88;3.42;;;;;;;-142.57;27.22;115900.28;5076930;28;20092;-82
2023/09/08 10:58:17;;;;;;;7.82;4.15;;;;;;;-142.57;26.58;115900.28;5076035;28;20456;-80
2023/09/08 11:00:51;;;;;;;13.25;4.43;;;;;;;-142.57;27.52;115900.28;5073134;28;20074;-80
2023/09/08 11:03:27;;;;;;;10.45;3.65;;;;;;;-142.57;27.90;115900.28;5058333;28;20371;-81